Terminal Aerodrome Forecast
Issued by NWS

Current Version | Previous Version | Text Only | Print | Product List | Glossary On
Versions: 1 2 3 4 5 6 7 8 9 10 11 12 13 14 15 16
447
FTUS45 KRIW 212336
TAFBPI
TAF
KBPI 212336Z 2200/2224 32013KT P6SM VCSH SCT040 BKN070
     FM220900 34007KT P6SM SCT050 BKN110
     FM221700 14010KT P6SM VCSH BKN050 OVC110
     FM222000 13010KT 5SM -SN BKN020 OVC040=

USA.gov is the U.S. government's official web portal to all federal, state and local government web resources and services.